createdAt,value
2023-03-27T00:01:27.038Z,4.30
2023-03-27T00:03:55.682Z,4.50
2023-03-27T00:06:24.989Z,4.30
2023-03-27T00:08:53.468Z,4.30
2023-03-27T00:11:22.157Z,4.30
2023-03-27T00:13:51.384Z,4.50
2023-03-27T00:16:21.745Z,4.90
2023-03-27T00:18:49.834Z,5.30
2023-03-27T00:21:17.673Z,5.00
2023-03-27T00:23:45.481Z,4.50
2023-03-27T00:26:14.469Z,4.50
2023-03-27T00:28:42.417Z,4.80
2023-03-27T00:31:15.617Z,4.40
2023-03-27T00:33:43.688Z,4.90
2023-03-27T00:36:11.916Z,4.50
2023-03-27T00:38:40.655Z,4.70
2023-03-27T00:41:09.254Z,4.90
2023-03-27T00:43:45.348Z,5.10
2023-03-27T00:46:31.739Z,5.00
2023-03-27T00:49:03.844Z,5.30
2023-03-27T00:51:32.145Z,4.80
2023-03-27T00:54:00.837Z,5.30
2023-03-27T00:56:28.889Z,5.00
2023-03-27T00:59:06.945Z,5.70
2023-03-27T01:01:36.243Z,5.40
2023-03-27T01:04:07.493Z,5.00
2023-03-27T01:06:36.916Z,5.30
2023-03-27T01:09:04.818Z,5.10
2023-03-27T01:11:45.293Z,5.40
2023-03-27T01:14:37.313Z,4.50
2023-03-27T01:17:36.251Z,5.70
2023-03-27T01:20:42.618Z,4.90
2023-03-27T01:23:58.672Z,5.20
2023-03-27T01:26:19.479Z,5.30
2023-03-27T01:29:42.653Z,6.10
2023-03-27T01:32:42.250Z,5.70
2023-03-27T01:35:16.194Z,6.10
2023-03-27T01:38:19.661Z,5.80
2023-03-27T01:40:59.172Z,5.80
2023-03-27T01:43:58.395Z,5.90
2023-03-27T01:46:43.506Z,5.90
2023-03-27T01:49:27.284Z,5.70
2023-03-27T01:52:00.626Z,5.90
2023-03-27T01:54:33.876Z,5.90
2023-03-27T01:57:10.999Z,6.50
2023-03-27T01:59:42.938Z,6.40
2023-03-27T02:02:20.296Z,6.20
2023-03-27T02:05:03.721Z,6.20
2023-03-27T02:07:38.497Z,5.90
2023-03-27T02:10:11.380Z,6.20
2023-03-27T02:12:49.009Z,6.50
2023-03-27T02:15:25.440Z,5.80
2023-03-27T02:18:06.492Z,6.10
2023-03-27T02:20:35.891Z,6.50
2023-03-27T02:23:06.587Z,6.40
2023-03-27T02:25:36.020Z,5.60
2023-03-27T02:28:29.348Z,5.10
2023-03-27T02:31:32.181Z,5.80
2023-03-27T02:34:20.676Z,5.40
2023-03-27T02:36:57.492Z,5.30
2023-03-27T02:39:57.631Z,5.10
2023-03-27T02:42:47.884Z,6.00
2023-03-27T02:45:48.170Z,6.30
2023-03-27T02:48:28.221Z,7.60
2023-03-27T02:51:01.268Z,8.40
2023-03-27T02:53:35.302Z,9.70
2023-03-27T02:56:06.030Z,9.90
2023-03-27T02:58:39.953Z,11.00
2023-03-27T03:01:18.620Z,10.10
2023-03-27T03:04:28.650Z,10.60
2023-03-27T03:07:16.125Z,10.10
2023-03-27T03:09:44.609Z,10.20
2023-03-27T03:12:12.722Z,9.90
2023-03-27T03:14:46.687Z,10.20
2023-03-27T03:17:16.367Z,12.40
2023-03-27T03:19:46.231Z,10.40
2023-03-27T03:22:14.745Z,9.10
2023-03-27T03:24:43.803Z,9.90
2023-03-27T03:27:14.751Z,8.20
2023-03-27T03:29:51.788Z,8.10
2023-03-27T03:32:21.461Z,7.60
2023-03-27T03:34:51.751Z,7.90
2023-03-27T03:37:20.119Z,7.60
2023-03-27T03:39:47.958Z,6.50
2023-03-27T03:42:22.393Z,6.70
2023-03-27T03:44:52.733Z,5.30
2023-03-27T03:47:22.521Z,5.70
2023-03-27T03:49:50.510Z,5.00
2023-03-27T03:52:18.727Z,4.70
2023-03-27T03:54:47.000Z,4.90
2023-03-27T03:57:15.341Z,4.80
2023-03-27T03:59:44.058Z,5.40
2023-03-27T04:05:08.572Z,7.10
2023-03-27T04:07:40.235Z,14.40
2023-03-27T04:10:31.218Z,6.30
2023-03-27T04:13:00.522Z,5.90
2023-03-27T04:15:30.851Z,6.30
2023-03-27T04:18:19.473Z,6.40
2023-03-27T04:20:50.718Z,5.30
2023-03-27T04:23:20.166Z,5.20
2023-03-27T04:25:48.796Z,5.10
2023-03-27T04:28:21.413Z,4.80
2023-03-27T04:30:54.489Z,4.20
2023-03-27T04:33:52.276Z,4.10
2023-03-27T04:36:39.645Z,5.30
2023-03-27T04:39:13.092Z,4.60
2023-03-27T04:41:41.090Z,5.40
2023-03-27T04:44:09.766Z,5.00
2023-03-27T04:46:41.521Z,5.00
2023-03-27T04:49:11.197Z,5.60
2023-03-27T04:51:46.973Z,7.10
2023-03-27T04:54:15.087Z,6.20
2023-03-27T04:56:46.557Z,5.80
2023-03-27T04:59:15.694Z,6.50
2023-03-27T05:01:44.754Z,6.10
2023-03-27T05:04:21.881Z,5.40
2023-03-27T05:07:15.581Z,6.00
2023-03-27T05:09:43.414Z,5.90
2023-03-27T05:12:11.969Z,5.10
2023-03-27T05:14:48.665Z,6.40
2023-03-27T05:17:32.629Z,6.50
2023-03-27T05:20:00.837Z,7.00
2023-03-27T05:22:28.769Z,7.60
2023-03-27T05:25:05.228Z,7.30
2023-03-27T05:27:33.308Z,6.50
2023-03-27T05:30:01.590Z,6.20
2023-03-27T05:32:30.649Z,6.40
2023-03-27T05:35:18.073Z,5.60
2023-03-27T05:37:48.078Z,7.20
2023-03-27T05:40:27.514Z,6.10
2023-03-27T05:42:57.681Z,7.00
2023-03-27T05:45:29.366Z,7.10
2023-03-27T05:47:59.417Z,5.90
2023-03-27T05:50:33.544Z,6.40
2023-03-27T05:53:05.484Z,6.20
2023-03-27T05:55:38.837Z,6.10
2023-03-27T05:58:09.908Z,7.90
2023-03-27T06:00:42.177Z,6.20
2023-03-27T06:03:12.972Z,6.70
2023-03-27T06:06:11.979Z,8.10
2023-03-27T06:08:40.759Z,5.80
2023-03-27T06:11:11.306Z,5.60
2023-03-27T06:13:45.849Z,6.00
2023-03-27T06:16:20.778Z,5.70
2023-03-27T06:19:10.487Z,6.00
2023-03-27T06:21:46.153Z,4.90
2023-03-27T06:24:14.070Z,3.90
2023-03-27T06:26:42.689Z,4.00
2023-03-27T06:29:10.915Z,4.10
2023-03-27T06:31:45.860Z,4.60
2023-03-27T06:34:19.538Z,4.90
2023-03-27T06:36:52.584Z,6.00
2023-03-27T06:39:21.591Z,6.40
2023-03-27T06:41:51.042Z,6.30
2023-03-27T06:44:34.523Z,5.10
2023-03-27T06:47:29.937Z,4.60
2023-03-27T06:50:25.451Z,4.90
2023-03-27T06:52:55.305Z,3.80
2023-03-27T06:55:39.891Z,3.70
2023-03-27T06:58:08.667Z,6.10
2023-03-27T07:00:39.134Z,4.40
2023-03-27T07:03:30.038Z,7.10
2023-03-27T07:06:03.865Z,4.30
2023-03-27T07:08:42.004Z,4.80
2023-03-27T07:11:12.079Z,4.30
2023-03-27T07:13:49.222Z,4.60
2023-03-27T07:16:23.367Z,4.30
2023-03-27T07:18:51.628Z,4.90
2023-03-27T07:21:19.802Z,4.50
2023-03-27T07:23:47.757Z,4.50
2023-03-27T07:26:20.926Z,3.80
2023-03-27T07:29:03.918Z,4.30
2023-03-27T07:31:51.610Z,4.70
2023-03-27T07:34:20.857Z,4.40
2023-03-27T07:37:08.634Z,4.60
2023-03-27T07:39:37.130Z,5.20
2023-03-27T07:42:05.123Z,5.90
2023-03-27T07:44:59.195Z,6.20
2023-03-27T07:47:28.501Z,5.40
2023-03-27T07:49:58.268Z,5.60
2023-03-27T07:52:26.394Z,5.20
2023-03-27T07:54:59.079Z,5.20
2023-03-27T07:57:42.501Z,5.30
2023-03-27T08:00:19.767Z,4.60
2023-03-27T08:03:08.552Z,4.00
2023-03-27T08:05:38.437Z,3.90
2023-03-27T08:08:10.946Z,4.30
2023-03-27T08:10:59.322Z,4.10
2023-03-27T08:13:30.456Z,4.00
2023-03-27T08:16:07.394Z,3.80
2023-03-27T08:18:36.804Z,3.80
2023-03-27T08:21:08.427Z,4.20
2023-03-27T08:23:37.976Z,3.40
2023-03-27T08:26:06.213Z,4.20
2023-03-27T08:28:40.058Z,3.80
2023-03-27T08:31:12.623Z,3.10
2023-03-27T08:33:42.022Z,3.40
2023-03-27T08:36:14.554Z,4.30
2023-03-27T08:38:43.334Z,3.30
2023-03-27T08:41:38.954Z,3.50
2023-03-27T08:44:18.645Z,4.10
2023-03-27T08:46:53.533Z,3.50
2023-03-27T08:49:22.713Z,3.30
2023-03-27T08:52:29.267Z,3.50
2023-03-27T08:55:18.855Z,3.50
2023-03-27T08:57:59.768Z,3.30
2023-03-27T09:00:36.297Z,5.80
2023-03-27T09:03:27.219Z,5.50
2023-03-27T09:05:59.443Z,3.80
2023-03-27T09:08:46.998Z,3.30
2023-03-27T09:11:29.922Z,4.60
2023-03-27T09:14:10.338Z,3.70
2023-03-27T09:16:49.328Z,4.00
2023-03-27T09:19:27.179Z,6.30
2023-03-27T09:22:20.440Z,4.60
2023-03-27T09:28:01.564Z,6.30
2023-03-27T09:30:39.306Z,7.80
2023-03-27T09:33:25.549Z,6.20
2023-03-27T09:35:54.204Z,6.20
2023-03-27T09:38:37.515Z,4.00
2023-03-27T09:41:13.408Z,3.90
2023-03-27T09:43:51.592Z,3.80
2023-03-27T09:46:22.832Z,5.50
2023-03-27T09:49:01.100Z,5.50
2023-03-27T09:51:38.187Z,4.40
2023-03-27T09:54:08.747Z,3.90
2023-03-27T09:56:40.462Z,3.70
2023-03-27T09:59:20.150Z,3.30
2023-03-27T10:01:51.658Z,3.90
2023-03-27T10:04:23.066Z,3.40
2023-03-27T10:07:05.563Z,4.50
2023-03-27T10:09:42.871Z,3.10
2023-03-27T10:12:19.429Z,3.80
2023-03-27T10:14:52.558Z,4.80
2023-03-27T10:17:27.325Z,4.60
2023-03-27T10:20:09.098Z,4.00
2023-03-27T10:22:41.275Z,3.20
2023-03-27T10:25:19.298Z,3.20
2023-03-27T10:27:47.348Z,3.20
2023-03-27T10:30:38.047Z,3.90
2023-03-27T10:33:31.050Z,3.10
2023-03-27T10:36:12.751Z,2.70
2023-03-27T10:38:42.243Z,4.20
2023-03-27T10:41:28.696Z,3.20
2023-03-27T10:43:57.955Z,3.20
2023-03-27T10:46:28.417Z,2.30
2023-03-27T10:49:10.232Z,3.60
2023-03-27T10:51:59.867Z,2.90
2023-03-27T10:55:01.703Z,2.80
2023-03-27T10:57:35.597Z,2.30
2023-03-27T11:00:19.363Z,2.90
2023-03-27T11:03:20.254Z,4.20
2023-03-27T11:05:53.688Z,5.20
2023-03-27T11:08:48.016Z,5.10
2023-03-27T11:11:22.619Z,4.60
2023-03-27T11:13:54.191Z,2.10
2023-03-27T11:16:29.448Z,2.30
2023-03-27T11:19:12.307Z,2.20
2023-03-27T11:22:15.161Z,2.00
2023-03-27T11:24:50.448Z,2.60
2023-03-27T11:27:41.456Z,2.00
2023-03-27T11:30:33.979Z,2.30
2023-03-27T11:33:24.416Z,2.10
2023-03-27T11:36:06.157Z,2.30
2023-03-27T11:39:23.976Z,2.70
2023-03-27T11:42:00.676Z,1.90
2023-03-27T11:44:33.943Z,1.70
2023-03-27T11:47:38.807Z,2.30
2023-03-27T11:50:39.447Z,2.40
2023-03-27T11:53:26.064Z,1.70
2023-03-27T11:56:31.989Z,2.20
2023-03-27T11:59:33.943Z,1.70
2023-03-27T12:02:28.967Z,2.10
2023-03-27T12:05:06.930Z,2.40
2023-03-27T12:07:48.749Z,3.00
2023-03-27T12:10:29.432Z,2.60
2023-03-27T12:14:00.550Z,2.40
2023-03-27T12:17:10.045Z,3.40
2023-03-27T12:20:28.996Z,1.50
2023-03-27T12:26:14.650Z,1.50
2023-03-27T12:29:42.004Z,1.80
2023-03-27T12:32:37.502Z,2.00
2023-03-27T12:35:12.340Z,2.10
2023-03-27T12:37:57.158Z,2.10
2023-03-27T12:40:31.419Z,1.80
2023-03-27T12:43:07.350Z,2.20
2023-03-27T12:45:44.183Z,3.00
2023-03-27T12:48:20.575Z,3.80
2023-03-27T12:50:52.719Z,3.20
2023-03-27T12:53:26.812Z,1.70
2023-03-27T12:56:13.623Z,2.20
2023-03-27T12:58:42.843Z,1.80
2023-03-27T13:04:41.443Z,2.30
2023-03-27T13:07:29.206Z,1.30
2023-03-27T13:10:40.933Z,1.80
2023-03-27T13:13:32.473Z,1.90
2023-03-27T13:16:38.931Z,2.00
2023-03-27T13:19:13.191Z,4.10
2023-03-27T13:22:14.201Z,2.10
2023-03-27T13:24:42.406Z,3.00
2023-03-27T13:27:52.326Z,2.60
2023-03-27T13:30:47.781Z,2.80
2023-03-27T13:33:36.172Z,2.50
2023-03-27T13:36:17.534Z,2.80
2023-03-27T13:38:51.996Z,1.70
2023-03-27T13:41:46.851Z,3.20
2023-03-27T13:44:41.405Z,2.50
2023-03-27T13:47:34.269Z,1.50
2023-03-27T13:50:27.342Z,2.00
2023-03-27T13:53:10.530Z,1.30
2023-03-27T13:56:30.589Z,2.40
2023-03-27T13:59:43.780Z,3.60
2023-03-27T14:02:46.498Z,1.80
2023-03-27T14:05:38.598Z,1.90
2023-03-27T14:08:31.634Z,1.70
2023-03-27T14:11:39.152Z,1.90
2023-03-27T14:14:33.748Z,2.30
2023-03-27T14:17:11.395Z,2.00
2023-03-27T14:20:01.644Z,1.90
2023-03-27T14:22:38.742Z,2.20
2023-03-27T14:25:14.181Z,2.00
2023-03-27T14:28:00.111Z,2.00
2023-03-27T14:30:45.536Z,2.30
2023-03-27T14:33:28.853Z,3.60
2023-03-27T14:36:05.546Z,1.90
2023-03-27T14:38:36.721Z,1.80
2023-03-27T14:41:06.977Z,1.50
2023-03-27T14:43:51.495Z,2.00
2023-03-27T14:46:24.066Z,3.50
2023-03-27T14:48:58.055Z,2.10
2023-03-27T14:51:37.215Z,1.40
2023-03-27T14:54:13.931Z,2.20
2023-03-27T14:56:50.824Z,3.00
2023-03-27T14:59:26.770Z,3.80
2023-03-27T15:01:59.913Z,2.80
2023-03-27T15:04:30.272Z,3.50
2023-03-27T15:07:18.737Z,4.70
2023-03-27T15:10:07.842Z,4.00
2023-03-27T15:13:10.222Z,3.00
2023-03-27T15:15:44.228Z,3.10
2023-03-27T15:18:25.363Z,3.90
2023-03-27T15:20:56.667Z,3.60
2023-03-27T15:23:31.196Z,3.00
2023-03-27T15:26:08.041Z,2.10
2023-03-27T15:29:18.105Z,3.40
2023-03-27T15:31:49.594Z,2.50
2023-03-27T15:34:34.558Z,2.90
2023-03-27T15:37:07.596Z,4.00
2023-03-27T15:39:38.297Z,3.30
2023-03-27T15:42:12.619Z,2.20
2023-03-27T15:44:42.552Z,2.70
2023-03-27T15:47:28.606Z,2.70
2023-03-27T15:50:28.010Z,3.80
2023-03-27T15:52:58.257Z,3.20
2023-03-27T15:55:55.323Z,1.90
2023-03-27T15:58:28.571Z,2.20
2023-03-27T16:01:02.006Z,2.40
2023-03-27T16:03:34.316Z,2.40
2023-03-27T16:06:04.144Z,2.60
2023-03-27T16:08:38.387Z,3.10
2023-03-27T16:11:06.435Z,3.80
2023-03-27T16:13:42.332Z,5.50
2023-03-27T16:16:24.670Z,3.50
2023-03-27T16:18:53.247Z,2.70
2023-03-27T16:21:24.808Z,2.70
2023-03-27T16:23:52.731Z,4.70
2023-03-27T16:26:27.871Z,2.90
2023-03-27T16:28:59.743Z,3.60
2023-03-27T16:31:27.799Z,4.10
2023-03-27T16:33:56.009Z,4.60
2023-03-27T16:36:32.036Z,4.10
2023-03-27T16:38:59.939Z,3.10
2023-03-27T16:41:28.266Z,3.20
2023-03-27T16:43:56.340Z,5.40
2023-03-27T16:46:27.118Z,5.50
2023-03-27T16:48:56.427Z,6.80
2023-03-27T16:51:27.383Z,8.20
2023-03-27T16:53:55.593Z,8.60
2023-03-27T16:56:23.605Z,6.60
2023-03-27T16:58:51.712Z,8.10
2023-03-27T17:01:19.663Z,8.70
2023-03-27T17:03:47.577Z,6.80
2023-03-27T17:06:17.581Z,7.20
2023-03-27T17:08:45.856Z,5.10
2023-03-27T17:11:14.002Z,9.70
2023-03-27T17:13:43.623Z,9.20
2023-03-27T17:16:11.860Z,7.20
2023-03-27T17:18:39.707Z,8.20
2023-03-27T17:21:08.045Z,4.50
2023-03-27T17:23:36.359Z,4.30
2023-03-27T17:26:04.847Z,5.30
2023-03-27T17:28:33.103Z,5.20
2023-03-27T17:31:05.296Z,6.00
2023-03-27T17:33:33.992Z,8.00
2023-03-27T17:36:08.655Z,7.00
2023-03-27T17:38:37.097Z,7.90
2023-03-27T17:41:06.521Z,6.90
2023-03-27T17:43:34.481Z,7.00
2023-03-27T17:46:03.239Z,9.90
2023-03-27T17:48:37.620Z,12.30
2023-03-27T17:51:09.546Z,10.70
2023-03-27T17:53:39.093Z,7.30
2023-03-27T17:56:08.073Z,7.90
2023-03-27T17:58:37.142Z,6.80
2023-03-27T18:01:14.017Z,8.40
2023-03-27T18:03:43.108Z,9.70
2023-03-27T18:06:11.606Z,10.40
2023-03-27T18:08:39.755Z,9.80
2023-03-27T18:11:10.285Z,10.10
2023-03-27T18:13:39.220Z,6.60
2023-03-27T18:16:11.204Z,6.10
2023-03-27T18:18:39.988Z,7.10
2023-03-27T18:21:09.405Z,6.20
2023-03-27T18:23:45.897Z,5.50
2023-03-27T18:26:16.688Z,5.10
2023-03-27T18:28:44.972Z,6.90
2023-03-27T18:31:13.358Z,5.70
2023-03-27T18:33:41.697Z,6.30
2023-03-27T18:36:11.819Z,6.40
2023-03-27T18:38:41.744Z,5.30
2023-03-27T18:41:10.202Z,4.40
2023-03-27T18:43:38.391Z,4.70
2023-03-27T18:46:07.824Z,7.40
2023-03-27T18:48:36.427Z,5.00
2023-03-27T18:51:06.079Z,5.10
2023-03-27T18:53:34.093Z,4.70
2023-03-27T18:56:02.503Z,5.30
2023-03-27T18:58:31.336Z,4.50
2023-03-27T19:01:00.002Z,5.80
2023-03-27T19:03:34.919Z,6.20
2023-03-27T19:06:07.151Z,4.30
2023-03-27T19:08:38.973Z,5.10
2023-03-27T19:11:08.121Z,5.50
2023-03-27T19:13:55.664Z,6.20
2023-03-27T19:16:59.343Z,5.30
2023-03-27T19:19:46.649Z,5.90
2023-03-27T19:22:21.950Z,5.60
2023-03-27T19:25:12.909Z,5.30
2023-03-27T19:27:41.173Z,5.00
2023-03-27T19:30:11.545Z,4.70
2023-03-27T19:32:40.067Z,5.10
2023-03-27T19:35:08.998Z,4.60
2023-03-27T19:37:37.080Z,4.80
2023-03-27T19:40:05.500Z,5.00
2023-03-27T19:42:34.104Z,5.60
2023-03-27T19:45:02.125Z,6.40
2023-03-27T19:47:29.989Z,6.80
2023-03-27T19:49:58.506Z,5.80
2023-03-27T19:52:47.712Z,6.20
2023-03-27T19:55:25.343Z,6.00
2023-03-27T19:57:54.950Z,6.20
2023-03-27T20:00:22.962Z,5.70
2023-03-27T20:02:52.756Z,6.10
2023-03-27T20:05:22.181Z,6.70
2023-03-27T20:07:50.232Z,7.40
2023-03-27T20:10:18.057Z,6.40
2023-03-27T20:12:45.905Z,6.30
2023-03-27T20:15:14.077Z,6.50
2023-03-27T20:17:43.657Z,7.20
2023-03-27T20:20:11.801Z,7.60
2023-03-27T20:22:54.170Z,5.80
2023-03-27T20:25:24.847Z,5.80
2023-03-27T20:27:52.780Z,5.10
2023-03-27T20:30:21.041Z,4.90
2023-03-27T20:32:50.929Z,4.80
2023-03-27T20:35:24.208Z,5.00
2023-03-27T20:37:56.110Z,4.60
2023-03-27T20:40:26.410Z,6.30
2023-03-27T20:43:02.919Z,6.10
2023-03-27T20:45:31.523Z,7.00
2023-03-27T20:48:03.960Z,6.80
2023-03-27T20:50:34.968Z,6.00
2023-03-27T20:53:04.601Z,5.80
2023-03-27T20:55:37.502Z,6.10
2023-03-27T20:58:09.445Z,6.60
2023-03-27T21:00:37.306Z,6.30
2023-03-27T21:03:05.373Z,5.90
2023-03-27T21:05:38.353Z,5.60
2023-03-27T21:08:07.456Z,6.90
2023-03-27T21:10:36.001Z,7.80
2023-03-27T21:13:04.472Z,4.80
2023-03-27T21:15:33.559Z,4.20
2023-03-27T21:18:01.620Z,3.80
2023-03-27T21:20:30.685Z,3.80
2023-03-27T21:22:59.193Z,3.90
2023-03-27T21:25:27.069Z,3.60
2023-03-27T21:28:00.793Z,3.60
2023-03-27T21:30:46.895Z,3.30
2023-03-27T21:33:16.643Z,3.20
2023-03-27T21:35:49.187Z,3.20
2023-03-27T21:38:18.314Z,2.90
2023-03-27T21:40:47.191Z,3.00
2023-03-27T21:43:15.364Z,2.90
2023-03-27T21:45:43.380Z,3.60
2023-03-27T21:48:11.402Z,3.40
2023-03-27T21:50:39.297Z,3.80
2023-03-27T21:53:07.201Z,3.50
2023-03-27T21:55:35.802Z,3.30
2023-03-27T21:58:05.019Z,3.70
2023-03-27T22:00:32.902Z,3.40
2023-03-27T22:03:00.889Z,3.70
2023-03-27T22:05:28.781Z,4.30
2023-03-27T22:07:57.665Z,4.60
2023-03-27T22:10:25.775Z,5.40
2023-03-27T22:12:53.802Z,3.90
2023-03-27T22:15:21.777Z,5.60
2023-03-27T22:17:49.710Z,6.40
2023-03-27T22:20:17.662Z,5.60
2023-03-27T22:22:45.588Z,4.70
2023-03-27T22:25:13.448Z,3.90
2023-03-27T22:27:41.474Z,3.70
2023-03-27T22:30:09.887Z,2.80
2023-03-27T22:32:37.778Z,3.00
2023-03-27T22:35:06.185Z,3.60
2023-03-27T22:37:38.071Z,4.00
2023-03-27T22:40:07.058Z,3.60
2023-03-27T22:42:34.956Z,3.80
2023-03-27T22:45:04.454Z,4.30
2023-03-27T22:47:32.503Z,4.30
2023-03-27T22:50:02.370Z,4.40
2023-03-27T22:52:30.466Z,4.50
2023-03-27T22:54:58.308Z,4.90
2023-03-27T22:57:26.152Z,4.80
2023-03-27T22:59:54.107Z,4.80
2023-03-27T23:02:22.161Z,4.40
2023-03-27T23:04:50.178Z,4.10
2023-03-27T23:07:18.007Z,4.70
2023-03-27T23:09:45.947Z,4.80
2023-03-27T23:12:13.809Z,3.80
2023-03-27T23:14:41.713Z,3.60
2023-03-27T23:17:09.646Z,3.60
2023-03-27T23:19:37.484Z,2.60
2023-03-27T23:22:05.442Z,2.80
2023-03-27T23:24:33.309Z,3.00
2023-03-27T23:27:01.180Z,2.70
2023-03-27T23:29:29.057Z,2.40
2023-03-27T23:31:57.260Z,2.50
2023-03-27T23:34:25.465Z,2.80
2023-03-27T23:36:53.289Z,2.60
2023-03-27T23:39:21.211Z,2.70
2023-03-27T23:41:49.038Z,2.70
2023-03-27T23:44:16.880Z,2.90
2023-03-27T23:46:44.734Z,3.10
2023-03-27T23:49:13.220Z,2.80
2023-03-27T23:51:41.165Z,3.00
2023-03-27T23:54:08.996Z,2.90
2023-03-27T23:56:36.854Z,3.20
2023-03-27T23:59:04.913Z,3.30
